Indianapolis Mount Comfort, IN

10:42 AM EST on November 23, 2017 (GMT -0500)
Mount Comfort

Weather History for KMQJ - December, 2013

Change the Weather History Date:

Thursday, December 12, 2013

  Actual Average (KEYE) Record (KEYE)
Temperature  
Mean Temperature 10 °F -  
Max Temperature 23 °F 39 °F 69 °F (2015)
Min Temperature -2 °F 26 °F 2 °F (2013)
Degree Days  
Heating Degree Days 54    
Moisture  
Dew Point 1 °F    
Average Humidity 63    
Maximum Humidity 92    
Minimum Humidity 36    
Precipitation  
Precipitation 0.00 in - - ()
Sea Level Pressure  
Sea Level Pressure 30.44 in    
Wind  
Wind Speed 7 mph (SW)    
Max Wind Speed 15 mph    
Max Gust Speed 20 mph    
Visibility 10 miles    
Events      
Averages and records for this station are not official NWS values.
T = Trace of Precipitation, MM = Missing Value Source: NWS Daily Summary

Daily Weather History Graph

Daily Weather History Graph

Search for Another Location

Airport or City:

Trip Planner

Search our weather history database for the weather conditions in past years. The results will help you decide how hot, cold, wet, or windy it might be!

Date:

Astronomy

Dec. 12, 2013 Rise Set
Actual Time 7:55 AM EST 5:19 PM EST
Civil Twilight 7:25 AM EST 5:49 PM EST
Nautical Twilight 6:51 AM EST 6:23 PM EST
Astronomical Twilight 6:18 AM EST 6:56 PM EST
Moon 2:25 PM EST (12/12) 3:18 AM EST (12/12)
Length of Visible Light 10h 24m
Length of Day
9h 23m
Waxing Gibbous, 80% of the Moon is Illuminated
Dec 12
Waxing Gibbous
Dec 17
Full
Dec 25
Last Quarter
Jan 1
New
Jan 7
First Quarter

Hourly Weather History & Observations

Time (EST) Temp. Windchill Dew Point Humidity Pressure Visibility Wind Dir Wind Speed Gust Speed Precip Events Conditions
12:14 AM 10.4 °F -1.5 °F 5.0 °F 79% 30.52 in 10.0 mi NW 8.1 mph - N/A   Clear
12:35 AM 10.4 °F -1.5 °F 5.0 °F 79% 30.53 in 10.0 mi NW 8.1 mph - N/A   Clear
12:54 AM 10.4 °F -0.4 °F 5.0 °F 79% 30.54 in 10.0 mi NW 6.9 mph - N/A   Clear
1:14 AM 10.4 °F -2.4 °F 5.0 °F 79% 30.52 in 10.0 mi NW 9.2 mph - N/A   Clear
1:35 AM 8.6 °F -2.6 °F 5.0 °F 85% 30.52 in 10.0 mi NW 6.9 mph - N/A   Clear
1:54 AM 8.6 °F -3.7 °F 5.0 °F 85% 30.53 in 10.0 mi NW 8.1 mph - N/A   Clear
2:14 AM 8.6 °F -5.5 °F 3.2 °F 79% 30.54 in 10.0 mi NW 10.4 mph - N/A   Clear
2:34 AM 8.6 °F -2.6 °F 3.2 °F 79% 30.54 in 10.0 mi WNW 6.9 mph - N/A   Clear
2:54 AM 8.6 °F -2.6 °F 1.4 °F 73% 30.54 in 10.0 mi NW 6.9 mph - N/A   Clear
3:15 AM 8.6 °F 0.1 °F 1.4 °F 73% 30.53 in 10.0 mi NW 4.6 mph - N/A   Clear
3:34 AM 6.8 °F -2.0 °F -0.4 °F 72% 30.53 in 10.0 mi NW 4.6 mph - N/A   Clear
3:54 AM 6.8 °F -2.0 °F -0.4 °F 72% 30.53 in 10.0 mi NW 4.6 mph - N/A   Clear
4:14 AM 5.0 °F -5.6 °F -2.2 °F 72% 30.53 in 10.0 mi WNW 5.8 mph - N/A   Clear
4:34 AM 3.2 °F -4.2 °F -4.0 °F 72% 30.52 in 10.0 mi West 3.5 mph - N/A   Clear
4:55 AM 1.4 °F -6.2 °F -2.2 °F 85% 30.53 in 10.0 mi West 3.5 mph - N/A   Clear
5:14 AM 1.4 °F -6.2 °F -2.2 °F 85% 30.52 in 10.0 mi WNW 3.5 mph - N/A   Clear
5:34 AM 1.4 °F - -4.0 °F 78% 30.52 in 10.0 mi Calm Calm - N/A   Clear
5:55 AM 1.4 °F -6.2 °F -2.2 °F 85% 30.52 in 10.0 mi West 3.5 mph - N/A   Clear
6:14 AM -0.4 °F -8.3 °F -4.0 °F 85% 30.52 in 10.0 mi SW 3.5 mph - N/A   Clear
6:35 AM 1.4 °F - -2.2 °F 85% 30.50 in 10.0 mi Calm Calm - N/A   Clear
6:54 AM -0.4 °F - -2.2 °F 92% 30.51 in 10.0 mi Calm Calm - N/A   Clear
7:14 AM -0.4 °F - -2.2 °F 92% 30.52 in 10.0 mi Calm Calm - N/A   Clear
7:35 AM -2.2 °F - -4.0 °F 92% 30.52 in 10.0 mi Calm Calm - N/A   Clear
7:54 AM -0.4 °F - -2.2 °F 92% 30.52 in 10.0 mi Calm Calm - N/A   Clear
8:14 AM -0.4 °F - -2.2 °F 92% 30.52 in 10.0 mi Calm Calm - N/A   Clear
8:35 AM 1.4 °F -8.3 °F -2.2 °F 85% 30.52 in 10.0 mi South 4.6 mph - N/A   Clear
8:54 AM 3.2 °F -4.2 °F -0.4 °F 85% 30.52 in 10.0 mi South 3.5 mph - N/A   Clear
9:15 AM 6.8 °F -2.0 °F 1.4 °F 79% 30.52 in 10.0 mi SSW 4.6 mph - N/A   Clear
9:34 AM 6.8 °F -2.0 °F 1.4 °F 79% 30.52 in 10.0 mi SW 4.6 mph - N/A   Clear
9:54 AM 8.6 °F -1.3 °F 1.4 °F 73% 30.51 in 10.0 mi South 5.8 mph - N/A   Clear
10:15 AM 10.4 °F -0.4 °F 1.4 °F 67% 30.52 in 10.0 mi South 6.9 mph - N/A   Clear
10:34 AM 10.4 °F -1.5 °F 1.4 °F 67% 30.53 in 10.0 mi SSW 8.1 mph - N/A   Clear
10:55 AM 12.2 °F 2.9 °F 3.2 °F 67% 30.52 in 10.0 mi South 5.8 mph - N/A   Clear
11:14 AM 12.2 °F 1.7 °F 3.2 °F 67% 30.51 in 10.0 mi SSW 6.9 mph - N/A   Clear
11:34 AM 14.0 °F 5.1 °F 3.2 °F 62% 30.50 in 10.0 mi South 5.8 mph - N/A   Clear
11:55 AM 15.8 °F 5.1 °F 3.2 °F 58% 30.48 in 10.0 mi South 8.1 mph - N/A   Clear
12:14 PM 15.8 °F 4.2 °F 3.2 °F 58% 30.46 in 10.0 mi SSW 9.2 mph - N/A   Clear
12:34 PM 17.6 °F 6.4 °F 1.4 °F 49% 30.45 in 10.0 mi SSW 9.2 mph - N/A   Clear
12:54 PM 17.6 °F 4.3 °F 1.4 °F 49% 30.44 in 10.0 mi SSW 12.7 mph - N/A   Clear
1:14 PM 17.6 °F 4.3 °F 1.4 °F 49% 30.44 in 10.0 mi SSW 12.7 mph - N/A   Clear
1:35 PM 17.6 °F 5.0 °F 1.4 °F 49% 30.43 in 10.0 mi SSW 11.5 mph - N/A   Clear
1:54 PM 17.6 °F 5.0 °F 1.4 °F 49% 30.43 in 10.0 mi SSW 11.5 mph - N/A   Clear
2:14 PM 21.2 °F 10.1 °F 1.4 °F 42% 30.42 in 10.0 mi SSW 10.4 mph - N/A   Clear
2:34 PM 21.2 °F 11.7 °F 1.4 °F 42% 30.41 in 10.0 mi SSW 8.1 mph - N/A   Clear
2:54 PM 21.2 °F 8.9 °F -0.4 °F 39% 30.40 in 10.0 mi SSW 12.7 mph 16.1 mph N/A   Clear
3:15 PM 23.0 °F 10.1 °F -0.4 °F 36% 30.39 in 10.0 mi SSW 15.0 mph - N/A   Clear
3:34 PM 23.0 °F 11.1 °F 1.4 °F 39% 30.38 in 10.0 mi SSW 12.7 mph - N/A   Clear
3:54 PM 23.0 °F 12.4 °F 1.4 °F 39% 30.37 in 10.0 mi SSW 10.4 mph - N/A   Clear
4:15 PM 21.2 °F 10.9 °F 5.0 °F 50% 30.37 in 10.0 mi SSW 9.2 mph - N/A   Clear
4:34 PM 23.0 °F 12.4 °F 1.4 °F 39% 30.37 in 10.0 mi SSW 10.4 mph - N/A   Clear
4:55 PM 21.2 °F 7.8 °F -2.2 °F 36% 30.36 in 10.0 mi SW 15.0 mph 19.6 mph N/A   Clear
5:14 PM 21.2 °F 12.6 °F -0.4 °F 39% 30.36 in 10.0 mi SSW 6.9 mph - N/A   Clear
5:34 PM 19.4 °F 8.6 °F 1.4 °F 46% 30.36 in 10.0 mi SSW 9.2 mph - N/A   Clear
5:55 PM 19.4 °F 9.5 °F -0.4 °F 42% 30.34 in 10.0 mi SSW 8.1 mph - N/A   Clear
6:14 PM 19.4 °F 7.9 °F -0.4 °F 42% 30.34 in 10.0 mi SSW 10.4 mph - N/A   Clear
6:34 PM 19.4 °F 7.9 °F -2.2 °F 39% 30.34 in 10.0 mi SSW 10.4 mph - N/A   Clear
6:54 PM 17.6 °F 5.7 °F -0.4 °F 45% 30.34 in 10.0 mi SSW 10.4 mph - N/A   Clear
7:14 PM 17.6 °F 10.7 °F -0.4 °F 45% 30.34 in 10.0 mi SSW 4.6 mph - N/A   Clear
7:35 PM 15.8 °F 8.6 °F -0.4 °F 49% 30.34 in 10.0 mi SW 4.6 mph - N/A   Clear
7:54 PM 15.8 °F 10.2 °F -0.4 °F 49% 30.34 in 10.0 mi South 3.5 mph - N/A   Clear
8:14 PM 15.8 °F 8.6 °F 1.4 °F 53% 30.34 in 10.0 mi South 4.6 mph - N/A   Clear
8:34 PM 15.8 °F 6.1 °F 1.4 °F 53% 30.33 in 10.0 mi South 6.9 mph - N/A   Clear
8:54 PM 15.8 °F 7.2 °F 1.4 °F 53% 30.32 in 10.0 mi SSW 5.8 mph - N/A   Clear
9:15 PM 15.8 °F 7.2 °F 1.4 °F 53% 30.32 in 10.0 mi SSW 5.8 mph - N/A   Clear
9:34 PM 15.8 °F 7.2 °F 1.4 °F 53% 30.31 in 10.0 mi SSW 5.8 mph - N/A   Clear
9:54 PM 15.8 °F 10.2 °F 1.4 °F 53% 30.32 in 10.0 mi SSW 3.5 mph - N/A   Clear
10:14 PM 15.8 °F 10.2 °F 1.4 °F 53% 30.32 in 10.0 mi SSW 3.5 mph - N/A   Clear
10:34 PM 15.8 °F 8.6 °F 1.4 °F 53% 30.32 in 10.0 mi SSW 4.6 mph - N/A   Clear
10:55 PM 14.0 °F 6.5 °F 1.4 °F 57% 30.32 in 10.0 mi South 4.6 mph - N/A   Clear
11:14 PM 12.2 °F 2.9 °F 1.4 °F 62% 30.31 in 10.0 mi South 5.8 mph - N/A   Clear
11:34 PM 14.0 °F 8.2 °F 1.4 °F 57% 30.31 in 10.0 mi South 3.5 mph - N/A   Clear
11:55 PM 14.0 °F 6.5 °F 3.2 °F 62% 30.31 in 10.0 mi South 4.6 mph - N/A   Clear